createdAt,value
2022-11-13T00:01:19.525Z,37.55
2022-11-13T00:03:23.904Z,37.25
2022-11-13T00:05:28.286Z,37.26
2022-11-13T00:07:32.820Z,37.19
2022-11-13T00:09:37.196Z,37.17
2022-11-13T00:11:41.573Z,37.24
2022-11-13T00:13:45.956Z,37.25
2022-11-13T00:15:50.359Z,37.44
2022-11-13T00:17:54.764Z,37.28
2022-11-13T00:19:59.126Z,37.45
2022-11-13T00:22:03.542Z,37.15
2022-11-13T00:24:07.936Z,37.19
2022-11-13T00:26:12.316Z,37.09
2022-11-13T00:28:16.764Z,37.09
2022-11-13T00:30:21.768Z,37.18
2022-11-13T00:32:26.117Z,37.17
2022-11-13T00:35:00.603Z,37.16
2022-11-13T00:37:04.984Z,37.04
2022-11-13T00:39:09.365Z,37.04
2022-11-13T00:41:13.730Z,37.1
2022-11-13T00:43:18.133Z,36.99
2022-11-13T00:45:22.505Z,36.97
2022-11-13T00:47:26.865Z,36.97
2022-11-13T00:49:31.265Z,36.97
2022-11-13T00:51:35.761Z,36.96
2022-11-13T00:53:40.125Z,36.93
2022-11-13T00:55:44.513Z,36.94
2022-11-13T00:57:49.008Z,36.93
2022-11-13T00:59:53.421Z,36.94
2022-11-13T01:01:57.961Z,36.95
2022-11-13T01:04:02.340Z,36.98
2022-11-13T01:06:06.697Z,37.2
2022-11-13T01:08:11.083Z,37.11
2022-11-13T01:10:15.691Z,37.04
2022-11-13T01:12:20.069Z,36.98
2022-11-13T01:14:24.456Z,37.04
2022-11-13T01:16:28.848Z,36.98
2022-11-13T01:18:33.174Z,36.85
2022-11-13T01:20:37.545Z,36.64
2022-11-13T01:22:41.960Z,36.7
2022-11-13T01:24:46.356Z,36.7
2022-11-13T01:26:50.826Z,36.86
2022-11-13T01:28:55.203Z,36.68
2022-11-13T01:30:59.736Z,36.75
2022-11-13T01:33:04.091Z,36.78
2022-11-13T01:35:08.501Z,36.71
2022-11-13T01:37:12.890Z,36.69
2022-11-13T01:39:17.273Z,36.66
2022-11-13T01:41:25.574Z,36.53
2022-11-13T01:43:29.934Z,36.63
2022-11-13T01:45:34.300Z,36.68
2022-11-13T01:47:38.668Z,36.63
2022-11-13T01:49:43.056Z,36.72
2022-11-13T01:51:47.422Z,36.81
2022-11-13T01:53:51.758Z,36.69
2022-11-13T01:55:56.141Z,36.79
2022-11-13T01:58:00.499Z,36.63
2022-11-13T02:00:04.872Z,36.66
2022-11-13T02:02:09.453Z,36.63
2022-11-13T02:04:13.865Z,36.46
2022-11-13T02:06:18.236Z,36.39
2022-11-13T02:08:22.733Z,36.4
2022-11-13T02:10:27.091Z,36.32
2022-11-13T02:12:31.486Z,36.41
2022-11-13T02:14:35.843Z,36.35
2022-11-13T02:16:40.251Z,36.28
2022-11-13T02:18:44.610Z,36.27
2022-11-13T02:20:49.027Z,36.19
2022-11-13T02:22:53.448Z,36.13
2022-11-13T02:24:57.814Z,36.18
2022-11-13T02:27:02.179Z,36.15
2022-11-13T02:29:06.584Z,36.24
2022-11-13T02:31:10.957Z,36.31
2022-11-13T02:33:15.373Z,36.14
2022-11-13T02:35:19.709Z,36.11
2022-11-13T02:37:24.070Z,36.16
2022-11-13T02:39:28.449Z,36.17
2022-11-13T02:41:32.845Z,36.37
2022-11-13T02:43:37.182Z,36.32
2022-11-13T02:45:41.541Z,36.47
2022-11-13T02:47:45.902Z,36.48
2022-11-13T02:49:50.268Z,36.42
2022-11-13T02:51:54.629Z,36.37
2022-11-13T02:53:59.002Z,36.35
2022-11-13T02:56:03.344Z,36.28
2022-11-13T02:58:07.718Z,36.31
2022-11-13T03:00:16.077Z,36.3
2022-11-13T03:02:20.456Z,36.55
2022-11-13T03:04:24.786Z,36.42
2022-11-13T03:06:29.391Z,36.29
2022-11-13T03:08:37.632Z,36.14
2022-11-13T03:10:42.432Z,36.21
2022-11-13T03:12:46.889Z,36.17
2022-11-13T03:14:51.260Z,36.17
2022-11-13T03:16:55.639Z,36.25
2022-11-13T03:19:00.002Z,36.14
2022-11-13T03:21:04.353Z,36.1
2022-11-13T03:23:08.748Z,36.09
2022-11-13T03:25:13.315Z,36.14
2022-11-13T03:27:17.708Z,36.19
2022-11-13T03:29:22.090Z,36.33
2022-11-13T03:31:26.703Z,36.25
2022-11-13T03:33:31.148Z,36.13
2022-11-13T03:35:48.013Z,36.14
2022-11-13T03:37:52.339Z,36.13
2022-11-13T03:39:56.752Z,36.23
2022-11-13T03:42:01.167Z,36.26
2022-11-13T03:44:05.539Z,36.2
2022-11-13T03:46:09.929Z,36.09
2022-11-13T03:48:14.315Z,36.15
2022-11-13T03:50:18.772Z,36.13
2022-11-13T03:52:23.162Z,36.11
2022-11-13T03:54:27.531Z,36.06
2022-11-13T03:56:31.963Z,36.05
2022-11-13T03:58:43.703Z,35.94
2022-11-13T04:00:51.461Z,36.12
2022-11-13T04:02:55.823Z,36.07
2022-11-13T04:05:00.219Z,36.06
2022-11-13T04:07:04.813Z,35.94
2022-11-13T04:09:09.211Z,35.91
2022-11-13T04:11:13.539Z,35.94
2022-11-13T04:13:17.913Z,35.96
2022-11-13T04:15:22.241Z,35.84
2022-11-13T04:17:26.599Z,35.89
2022-11-13T04:19:30.968Z,35.89
2022-11-13T04:21:35.330Z,35.8
2022-11-13T04:23:39.721Z,35.77
2022-11-13T04:25:44.082Z,35.77
2022-11-13T04:27:48.450Z,35.75
2022-11-13T04:29:52.817Z,35.65
2022-11-13T04:31:57.197Z,35.65
2022-11-13T04:34:01.577Z,35.8
2022-11-13T04:36:05.931Z,35.77
2022-11-13T04:38:10.302Z,35.77
2022-11-13T04:40:14.695Z,35.74
2022-11-13T04:42:19.072Z,35.8
2022-11-13T04:44:23.481Z,35.82
2022-11-13T04:46:27.855Z,36.03
2022-11-13T04:48:32.772Z,35.93
2022-11-13T04:50:37.128Z,35.97
2022-11-13T04:52:41.477Z,35.94
2022-11-13T04:54:45.841Z,35.78
2022-11-13T04:56:50.195Z,35.86
2022-11-13T04:58:54.543Z,35.87
2022-11-13T05:00:58.919Z,35.83
2022-11-13T05:03:03.264Z,35.86
2022-11-13T05:05:07.713Z,35.87
2022-11-13T05:07:12.378Z,35.8
2022-11-13T05:09:16.777Z,35.83
2022-11-13T05:11:21.110Z,35.9
2022-11-13T05:13:25.427Z,36.01
2022-11-13T05:15:29.809Z,36.12
2022-11-13T05:17:34.144Z,36.19
2022-11-13T05:19:38.498Z,36.08
2022-11-13T05:21:42.845Z,36.04
2022-11-13T05:23:47.210Z,35.95
2022-11-13T05:25:51.589Z,36.08
2022-11-13T05:27:55.933Z,35.92
2022-11-13T05:30:00.318Z,36.07
2022-11-13T05:32:04.661Z,35.97
2022-11-13T05:34:09.034Z,35.98
2022-11-13T05:36:13.445Z,36
2022-11-13T05:38:17.798Z,36.16
2022-11-13T05:40:22.126Z,36.21
2022-11-13T05:42:26.501Z,36.15
2022-11-13T05:44:30.852Z,36.3
2022-11-13T05:46:35.206Z,36.12
2022-11-13T05:48:39.584Z,36.15
2022-11-13T05:50:43.938Z,36.08
2022-11-13T05:52:48.281Z,36.06
2022-11-13T05:54:52.662Z,36.03
2022-11-13T05:56:57.026Z,36.12
2022-11-13T05:59:01.379Z,36.16
2022-11-13T06:01:05.748Z,36.12
2022-11-13T06:03:10.100Z,36.19
2022-11-13T06:05:14.454Z,36.06
2022-11-13T06:07:19.127Z,36.08
2022-11-13T06:09:23.589Z,36.12
2022-11-13T06:11:27.963Z,36.06
2022-11-13T06:13:32.340Z,36.08
2022-11-13T06:15:36.692Z,36.02
2022-11-13T06:17:41.040Z,36.12
2022-11-13T06:19:45.430Z,36.09
2022-11-13T06:21:49.814Z,36.05
2022-11-13T06:23:54.160Z,36.14
2022-11-13T06:25:58.537Z,36.21
2022-11-13T06:28:02.885Z,36.31
2022-11-13T06:30:07.235Z,36.25
2022-11-13T06:32:11.592Z,36.19
2022-11-13T06:34:15.954Z,36.29
2022-11-13T06:36:20.351Z,36.38
2022-11-13T06:38:24.734Z,36.32
2022-11-13T06:40:29.146Z,36.31
2022-11-13T06:42:33.531Z,36.25
2022-11-13T06:44:38.027Z,36.61
2022-11-13T06:46:42.410Z,36.49
2022-11-13T06:48:46.755Z,36.66
2022-11-13T06:50:51.120Z,36.6
2022-11-13T06:52:55.506Z,36.57
2022-11-13T06:54:59.852Z,36.37
2022-11-13T06:57:04.210Z,36.45
2022-11-13T06:59:10.623Z,36.55
2022-11-13T07:01:15.221Z,36.76
2022-11-13T07:03:19.611Z,36.63
2022-11-13T07:05:24.024Z,36.67
2022-11-13T07:07:28.695Z,36.66
2022-11-13T07:09:33.102Z,36.7
2022-11-13T07:11:39.592Z,36.61
2022-11-13T07:13:44.971Z,36.62
2022-11-13T07:15:49.330Z,36.78
2022-11-13T07:17:53.743Z,36.69
2022-11-13T07:19:58.271Z,36.79
2022-11-13T07:22:02.632Z,36.84
2022-11-13T07:24:07.049Z,36.73
2022-11-13T07:26:11.454Z,36.74
2022-11-13T07:28:15.825Z,36.66
2022-11-13T07:30:20.335Z,36.59
2022-11-13T07:32:24.729Z,36.79
2022-11-13T07:34:29.129Z,36.76
2022-11-13T07:36:33.525Z,36.76
2022-11-13T07:38:37.969Z,36.66
2022-11-13T07:40:42.347Z,36.8
2022-11-13T07:42:46.699Z,36.75
2022-11-13T07:44:56.870Z,36.83
2022-11-13T07:47:01.210Z,36.83
2022-11-13T07:49:05.600Z,36.89
2022-11-13T07:51:09.968Z,36.74
2022-11-13T07:53:14.366Z,36.85
2022-11-13T07:55:18.767Z,36.44
2022-11-13T07:57:23.176Z,36.67
2022-11-13T07:59:27.575Z,36.86
2022-11-13T08:01:32.176Z,36.85
2022-11-13T08:03:36.607Z,36.7
2022-11-13T08:05:40.971Z,37.27
2022-11-13T08:07:52.404Z,37.61
2022-11-13T08:09:56.815Z,37.68
2022-11-13T08:12:01.177Z,37.69
2022-11-13T08:14:05.555Z,37.56
2022-11-13T08:16:09.942Z,37.75
2022-11-13T08:18:14.368Z,37.86
2022-11-13T08:20:18.730Z,37.9
2022-11-13T08:22:23.058Z,38.35
2022-11-13T08:24:27.483Z,38.64
2022-11-13T08:26:31.850Z,38.99
2022-11-13T08:28:36.270Z,38.87
2022-11-13T08:30:40.681Z,38.81
2022-11-13T08:32:45.051Z,38.92
2022-11-13T08:34:49.433Z,39.11
2022-11-13T08:36:53.855Z,39.04
2022-11-13T08:38:58.330Z,39.18
2022-11-13T08:41:10.748Z,39.38
2022-11-13T08:43:15.308Z,39.44
2022-11-13T08:45:19.892Z,39.29
2022-11-13T08:47:30.782Z,39.21
2022-11-13T08:49:35.132Z,39.08
2022-11-13T08:51:39.559Z,39.25
2022-11-13T08:53:43.929Z,39.27
2022-11-13T08:55:48.365Z,39.24
2022-11-13T08:57:52.737Z,39.32
2022-11-13T08:59:57.136Z,39.47
2022-11-13T09:02:01.597Z,39.38
2022-11-13T09:04:06.179Z,39.46
2022-11-13T09:06:10.629Z,39.55
2022-11-13T09:08:15.024Z,39.84
2022-11-13T09:10:19.421Z,40.02
2022-11-13T09:12:23.783Z,40.03
2022-11-13T09:14:28.234Z,40.11
2022-11-13T09:16:32.730Z,40.11
2022-11-13T09:18:37.150Z,40.35
2022-11-13T09:20:41.577Z,40.46
2022-11-13T09:22:45.985Z,40.44
2022-11-13T09:24:50.404Z,40.12
2022-11-13T09:26:54.770Z,40.45
2022-11-13T09:28:59.182Z,40.55
2022-11-13T09:31:03.601Z,40.61
2022-11-13T09:33:08.005Z,40.55
2022-11-13T09:35:12.428Z,40.54
2022-11-13T09:37:16.791Z,40.6
2022-11-13T09:39:21.184Z,40.72
2022-11-13T09:41:25.580Z,40.74
2022-11-13T09:43:29.981Z,40.76
2022-11-13T09:45:34.418Z,40.99
2022-11-13T09:47:38.813Z,41.27
2022-11-13T09:49:43.205Z,40.95
2022-11-13T09:51:47.587Z,40.89
2022-11-13T09:53:52.002Z,40.76
2022-11-13T09:55:56.391Z,40.74
2022-11-13T09:58:00.785Z,40.89
2022-11-13T10:00:05.282Z,40.98
2022-11-13T10:02:09.759Z,40.92
2022-11-13T10:04:16.532Z,40.88
2022-11-13T10:06:20.921Z,40.89
2022-11-13T10:08:25.467Z,40.96
2022-11-13T10:10:29.942Z,40.98
2022-11-13T10:12:34.404Z,40.95
2022-11-13T10:14:38.831Z,41.03
2022-11-13T10:16:43.246Z,41.12
2022-11-13T10:18:47.634Z,40.94
2022-11-13T10:20:52.027Z,40.79
2022-11-13T10:22:56.398Z,40.98
2022-11-13T10:25:00.764Z,41.08
2022-11-13T10:27:05.162Z,41.02
2022-11-13T10:29:09.828Z,41.26
2022-11-13T10:31:14.253Z,41.57
2022-11-13T10:33:18.615Z,41.63
2022-11-13T10:35:22.942Z,41.85
2022-11-13T10:37:27.363Z,42.06
2022-11-13T10:39:31.819Z,42.58
2022-11-13T10:41:36.225Z,42.72
2022-11-13T10:43:40.607Z,42.72
2022-11-13T10:45:44.968Z,42.98
2022-11-13T10:48:06.550Z,43.01
2022-11-13T10:50:10.961Z,42.96
2022-11-13T10:52:15.356Z,43.08
2022-11-13T10:54:19.721Z,43.16
2022-11-13T10:56:24.135Z,42.85
2022-11-13T10:58:29.873Z,42.97
2022-11-13T11:00:34.518Z,42.89
2022-11-13T11:02:38.953Z,42.81
2022-11-13T11:04:43.363Z,42.76
2022-11-13T11:07:22.692Z,43.28
2022-11-13T11:09:27.155Z,42.96
2022-11-13T11:11:31.519Z,42.94
2022-11-13T11:13:35.939Z,43.19
2022-11-13T11:15:40.354Z,43.05
2022-11-13T11:17:44.700Z,43.14
2022-11-13T11:19:49.085Z,43.17
2022-11-13T11:21:53.453Z,43.18
2022-11-13T11:23:58.578Z,42.77
2022-11-13T11:26:02.971Z,42.95
2022-11-13T11:28:07.339Z,43.01
2022-11-13T11:30:11.743Z,42.63
2022-11-13T11:32:16.097Z,42.89
2022-11-13T11:34:20.462Z,42.65
2022-11-13T11:36:24.889Z,42.41
2022-11-13T11:38:30.608Z,42.45
2022-11-13T11:40:35.054Z,42.4
2022-11-13T11:42:39.331Z,42.24
2022-11-13T11:44:43.646Z,42.48
2022-11-13T11:46:48.909Z,42.38
2022-11-13T11:48:53.194Z,42
2022-11-13T11:50:57.522Z,42.03
2022-11-13T11:53:01.776Z,41.97
2022-11-13T11:55:06.171Z,41.76
2022-11-13T11:57:11.024Z,41.83
2022-11-13T11:59:15.402Z,41.81
2022-11-13T12:01:19.793Z,41.75
2022-11-13T12:03:24.194Z,41.75
2022-11-13T12:05:28.825Z,41.72
2022-11-13T12:07:33.428Z,41.86
2022-11-13T12:09:37.820Z,41.83
2022-11-13T12:11:42.252Z,41.62
2022-11-13T12:13:46.681Z,41.58
2022-11-13T12:15:51.050Z,41.67
2022-11-13T12:17:55.466Z,41.7
2022-11-13T12:19:59.828Z,41.6
2022-11-13T12:22:04.278Z,41.49
2022-11-13T12:24:08.743Z,41.5
2022-11-13T12:26:13.134Z,41.57
2022-11-13T12:28:17.550Z,41.57
2022-11-13T12:30:21.908Z,41.59
2022-11-13T12:32:26.266Z,41.48
2022-11-13T12:34:30.656Z,41.55
2022-11-13T12:36:35.126Z,41.32
2022-11-13T12:38:39.502Z,41.33
2022-11-13T12:40:46.866Z,41.31
2022-11-13T12:42:51.258Z,41.34
2022-11-13T12:44:55.643Z,41.56
2022-11-13T12:47:00.093Z,41.45
2022-11-13T12:49:04.455Z,41.49
2022-11-13T12:51:08.869Z,41.39
2022-11-13T12:53:13.258Z,41.38
2022-11-13T12:55:17.674Z,41.37
2022-11-13T12:57:28.848Z,41.4
2022-11-13T12:59:34.673Z,41.48
2022-11-13T13:01:39.321Z,41.6
2022-11-13T13:03:43.743Z,41.47
2022-11-13T13:05:48.125Z,41.38
2022-11-13T13:07:52.489Z,41.51
2022-11-13T13:09:56.933Z,41.38
2022-11-13T13:12:01.267Z,41.75
2022-11-13T13:14:05.626Z,42.08
2022-11-13T13:16:10.031Z,42.44
2022-11-13T13:18:14.407Z,42.48
2022-11-13T13:20:18.739Z,42.73
2022-11-13T13:22:23.122Z,42.83
2022-11-13T13:24:27.561Z,42.9
2022-11-13T13:26:31.986Z,42.63
2022-11-13T13:28:36.358Z,42.55
2022-11-13T13:30:40.737Z,42.36
2022-11-13T13:32:45.152Z,42.33
2022-11-13T13:34:49.509Z,42.19
2022-11-13T13:36:54.023Z,42.33
2022-11-13T13:38:58.490Z,42.27
2022-11-13T13:41:02.831Z,42.36
2022-11-13T13:43:07.200Z,42.2
2022-11-13T13:45:11.607Z,42.29
2022-11-13T13:47:16.047Z,42.18
2022-11-13T13:49:20.447Z,42.44
2022-11-13T13:51:24.816Z,42.13
2022-11-13T13:53:29.272Z,42.05
2022-11-13T13:55:33.690Z,42.04
2022-11-13T13:57:38.132Z,42.12
2022-11-13T13:59:42.530Z,41.99
2022-11-13T14:01:47.022Z,41.98
2022-11-13T14:03:51.426Z,41.92
2022-11-13T14:06:05.029Z,41.81
2022-11-13T14:08:09.504Z,41.79
2022-11-13T14:10:13.912Z,41.85
2022-11-13T14:12:18.274Z,41.8
2022-11-13T14:14:22.660Z,42.16
2022-11-13T14:16:27.052Z,41.94
2022-11-13T14:18:31.922Z,41.76
2022-11-13T14:20:36.325Z,41.66
2022-11-13T14:22:40.658Z,41.89
2022-11-13T14:24:45.322Z,41.98
2022-11-13T14:26:49.822Z,41.98
2022-11-13T14:28:55.608Z,41.82
2022-11-13T14:31:00.001Z,42.12
2022-11-13T14:33:04.385Z,41.86
2022-11-13T14:35:08.746Z,42.33
2022-11-13T14:37:13.104Z,42.09
2022-11-13T14:39:17.686Z,42.17
2022-11-13T14:41:22.051Z,42.22
2022-11-13T14:43:26.711Z,42.01
2022-11-13T14:45:31.298Z,42.2
2022-11-13T14:47:35.714Z,42.25
2022-11-13T14:49:40.076Z,42.13
2022-11-13T14:51:44.479Z,42.28
2022-11-13T14:53:48.863Z,42.07
2022-11-13T14:55:53.245Z,42.13
2022-11-13T14:57:57.637Z,42.14
2022-11-13T15:00:02.044Z,42.16
2022-11-13T15:02:06.406Z,42.25
2022-11-13T15:04:10.827Z,42.18
2022-11-13T15:06:15.243Z,42.22
2022-11-13T15:08:20.108Z,42.15
2022-11-13T15:10:24.496Z,42.06
2022-11-13T15:12:28.909Z,42.19
2022-11-13T15:14:33.313Z,42.2
2022-11-13T15:16:37.732Z,42.06
2022-11-13T15:18:42.112Z,42.15
2022-11-13T15:20:46.543Z,42.28
2022-11-13T15:22:50.933Z,41.92
2022-11-13T15:24:55.383Z,41.88
2022-11-13T15:26:59.756Z,42.23
2022-11-13T15:29:04.136Z,42.04
2022-11-13T15:31:08.567Z,42.16
2022-11-13T15:33:13.433Z,42.09
2022-11-13T15:35:17.792Z,41.82
2022-11-13T15:37:22.150Z,41.88
2022-11-13T15:39:26.538Z,41.71
2022-11-13T15:41:30.931Z,42.35
2022-11-13T15:43:35.358Z,42.37
2022-11-13T15:45:45.976Z,42.53
2022-11-13T15:47:50.392Z,42.73
2022-11-13T15:50:16.897Z,43.23
2022-11-13T15:52:21.412Z,42.85
2022-11-13T15:54:25.800Z,43.35
2022-11-13T15:56:30.216Z,43.24
2022-11-13T15:58:36.522Z,41.22
2022-11-13T16:00:40.899Z,40.81
2022-11-13T16:02:45.398Z,40.33
2022-11-13T16:04:58.985Z,40.61
2022-11-13T16:07:03.666Z,40.26
2022-11-13T16:09:08.111Z,41.18
2022-11-13T16:11:12.492Z,40.55
2022-11-13T16:13:16.916Z,41.06
2022-11-13T16:15:21.296Z,40.72
2022-11-13T16:17:25.724Z,40.07
2022-11-13T16:19:30.164Z,40.21
2022-11-13T16:21:34.512Z,39.47
2022-11-13T16:23:38.885Z,39.09
2022-11-13T16:25:43.237Z,40.14
2022-11-13T16:27:47.581Z,40.41
2022-11-13T16:29:51.959Z,39.64
2022-11-13T16:31:56.327Z,41.22
2022-11-13T16:34:00.707Z,41.44
2022-11-13T16:36:11.836Z,41.96
2022-11-13T16:38:17.136Z,41.8
2022-11-13T16:40:21.500Z,41.97
2022-11-13T16:42:32.181Z,42.32
2022-11-13T16:44:36.629Z,42.1
2022-11-13T16:46:41.019Z,42.58
2022-11-13T16:48:45.409Z,42.12
2022-11-13T16:50:50.096Z,42.2
2022-11-13T16:52:54.496Z,42.15
2022-11-13T16:55:07.456Z,42.16
2022-11-13T16:57:12.027Z,42.71
2022-11-13T16:59:16.460Z,42.76
2022-11-13T17:01:21.188Z,43.1
2022-11-13T17:03:25.630Z,42.95
2022-11-13T17:05:29.969Z,43.16
2022-11-13T17:07:34.680Z,43.42
2022-11-13T17:09:39.154Z,42.98
2022-11-13T17:11:43.598Z,42.79
2022-11-13T17:13:48.001Z,43.08
2022-11-13T17:15:52.356Z,42.62
2022-11-13T17:17:57.112Z,42.59
2022-11-13T17:20:01.495Z,42.44
2022-11-13T17:22:05.950Z,42.75
2022-11-13T17:24:10.327Z,42.64
2022-11-13T17:26:14.716Z,42.45
2022-11-13T17:28:19.049Z,42.47
2022-11-13T17:30:23.474Z,42.3
2022-11-13T17:32:27.839Z,42.46
2022-11-13T17:34:32.265Z,42.25
2022-11-13T17:36:36.654Z,42.31
2022-11-13T17:38:41.086Z,42.5
2022-11-13T17:40:45.453Z,42.33
2022-11-13T17:42:49.975Z,42.39
2022-11-13T17:44:54.365Z,42.25
2022-11-13T17:46:58.817Z,42.24
2022-11-13T17:49:03.201Z,42.32
2022-11-13T17:51:07.578Z,42.38
2022-11-13T17:53:11.919Z,42.78
2022-11-13T17:55:16.347Z,42.5
2022-11-13T17:57:28.275Z,42.62
2022-11-13T17:59:32.689Z,42.58
2022-11-13T18:01:37.378Z,42.85
2022-11-13T18:03:41.787Z,42.71
2022-11-13T18:05:46.162Z,43.34
2022-11-13T18:07:50.546Z,43.22
2022-11-13T18:09:55.125Z,43.38
2022-11-13T18:11:59.533Z,43.35
2022-11-13T18:14:03.979Z,43.71
2022-11-13T18:16:08.387Z,43.86
2022-11-13T18:18:12.798Z,42.73
2022-11-13T18:20:17.143Z,41.46
2022-11-13T18:22:21.570Z,41.04
2022-11-13T18:24:26.267Z,40.57
2022-11-13T18:26:30.699Z,42.11
2022-11-13T18:28:35.114Z,40.43
2022-11-13T18:30:39.479Z,39.45
2022-11-13T18:32:43.900Z,40.18
2022-11-13T18:34:48.309Z,39.95
2022-11-13T18:36:52.751Z,39.44
2022-11-13T18:38:57.182Z,39.83
2022-11-13T18:41:01.635Z,39.78
2022-11-13T18:43:06.036Z,39.99
2022-11-13T18:45:10.502Z,38.69
2022-11-13T18:47:14.959Z,39.25
2022-11-13T18:49:19.366Z,38.81
2022-11-13T18:51:23.745Z,38.51
2022-11-13T18:53:29.015Z,38.63
2022-11-13T18:55:33.647Z,38.65
2022-11-13T18:57:38.032Z,38.62
2022-11-13T18:59:42.457Z,38.91
2022-11-13T19:01:47.142Z,38.14
2022-11-13T19:04:24.894Z,37.91
2022-11-13T19:06:29.336Z,38.21
2022-11-13T19:08:40.790Z,37.99
2022-11-13T19:10:45.274Z,38.29
2022-11-13T19:12:49.711Z,38.14
2022-11-13T19:14:54.094Z,37.85
2022-11-13T19:16:58.484Z,37.56
2022-11-13T19:19:02.904Z,37.51
2022-11-13T19:21:07.323Z,38.24
2022-11-13T19:23:11.692Z,37.95
2022-11-13T19:25:16.147Z,37.38
2022-11-13T19:27:20.527Z,37.31
2022-11-13T19:29:25.024Z,37.2
2022-11-13T19:31:29.503Z,37.21
2022-11-13T19:33:33.880Z,37.21
2022-11-13T19:35:38.293Z,37.22
2022-11-13T19:37:42.664Z,37.79
2022-11-13T19:39:47.041Z,37.56
2022-11-13T19:41:51.437Z,37.1
2022-11-13T19:43:55.866Z,36.7
2022-11-13T19:46:00.286Z,36.6
2022-11-13T19:48:04.733Z,36.48
2022-11-13T19:50:09.148Z,36.15
2022-11-13T19:52:13.544Z,36.41
2022-11-13T19:54:17.955Z,36.3
2022-11-13T19:56:22.308Z,36.17
2022-11-13T19:58:27.348Z,36.34
2022-11-13T20:00:31.913Z,35.98
2022-11-13T20:02:36.305Z,35.97
2022-11-13T20:04:40.741Z,36.02
2022-11-13T20:06:45.407Z,35.86
2022-11-13T20:08:49.803Z,35.86
2022-11-13T20:10:54.181Z,36.39
2022-11-13T20:12:58.724Z,35.96
2022-11-13T20:15:03.076Z,35.89
2022-11-13T20:17:07.588Z,35.82
2022-11-13T20:19:11.964Z,35.85
2022-11-13T20:21:16.664Z,35.71
2022-11-13T20:23:21.563Z,36.13
2022-11-13T20:25:25.955Z,35.71
2022-11-13T20:27:30.397Z,35.66
2022-11-13T20:29:34.803Z,35.46
2022-11-13T20:31:39.208Z,35.54
2022-11-13T20:33:43.596Z,35.48
2022-11-13T20:35:47.974Z,35.39
2022-11-13T20:37:52.384Z,35.74
2022-11-13T20:39:56.779Z,36.86
2022-11-13T20:42:01.180Z,37.08
2022-11-13T20:44:05.625Z,37.1
2022-11-13T20:46:10.009Z,37.65
2022-11-13T20:48:14.352Z,38.19
2022-11-13T20:50:18.781Z,38.58
2022-11-13T20:52:23.170Z,38.56
2022-11-13T20:54:27.811Z,38.75
2022-11-13T20:56:32.157Z,39.26
2022-11-13T20:58:36.621Z,39.29
2022-11-13T21:00:41.021Z,39.4
2022-11-13T21:02:45.382Z,39.4
2022-11-13T21:04:49.794Z,39.73
2022-11-13T21:06:54.373Z,39.98
2022-11-13T21:08:58.808Z,39.9
2022-11-13T21:11:03.199Z,39.84
2022-11-13T21:13:07.587Z,40.06
2022-11-13T21:15:12.047Z,40.18
2022-11-13T21:17:16.449Z,39.91
2022-11-13T21:19:20.860Z,40.02
2022-11-13T21:21:25.275Z,39.98
2022-11-13T21:23:29.644Z,39.79
2022-11-13T21:25:34.007Z,40.03
2022-11-13T21:27:38.396Z,40.12
2022-11-13T21:29:42.796Z,40.39
2022-11-13T21:31:47.235Z,40.08
2022-11-13T21:33:51.787Z,40.44
2022-11-13T21:35:56.188Z,40.29
2022-11-13T21:38:00.925Z,40.1
2022-11-13T21:40:05.307Z,40.27
2022-11-13T21:42:09.654Z,40.44
2022-11-13T21:44:14.057Z,40.36
2022-11-13T21:46:18.400Z,40.34
2022-11-13T21:48:22.790Z,40.53
2022-11-13T21:50:27.129Z,40.37
2022-11-13T21:52:31.522Z,40.28
2022-11-13T21:54:35.958Z,38.5
2022-11-13T21:56:40.344Z,37.29
2022-11-13T21:58:44.728Z,36.58
2022-11-13T22:00:49.050Z,36.6
2022-11-13T22:02:53.427Z,36.82
2022-11-13T22:04:57.842Z,36.26
2022-11-13T22:07:02.374Z,36.5
2022-11-13T22:09:06.854Z,36.37
2022-11-13T22:11:11.202Z,36.21
2022-11-13T22:13:15.568Z,35.97
2022-11-13T22:15:20.080Z,36.21
2022-11-13T22:17:24.431Z,36.28
2022-11-13T22:19:37.025Z,36.26
2022-11-13T22:21:41.419Z,36.18
2022-11-13T22:23:45.783Z,35.68
2022-11-13T22:25:52.442Z,35.37
2022-11-13T22:27:59.023Z,35.54
2022-11-13T22:30:03.441Z,35.17
2022-11-13T22:32:07.820Z,34.81
2022-11-13T22:34:12.189Z,35.03
2022-11-13T22:36:16.588Z,35.22
2022-11-13T22:38:20.956Z,34.91
2022-11-13T22:40:25.398Z,34.89
2022-11-13T22:42:29.801Z,34.86
2022-11-13T22:44:57.810Z,34.94
2022-11-13T22:47:02.206Z,34.87
2022-11-13T22:49:06.612Z,34.81
2022-11-13T22:51:11.056Z,34.8
2022-11-13T22:53:15.459Z,34.86
2022-11-13T22:55:19.853Z,34.8
2022-11-13T22:57:24.227Z,34.94
2022-11-13T22:59:28.680Z,34.83
2022-11-13T23:01:33.043Z,34.76
2022-11-13T23:03:37.770Z,34.94
2022-11-13T23:05:42.205Z,34.73
2022-11-13T23:07:46.602Z,34.82
2022-11-13T23:09:50.953Z,35
2022-11-13T23:11:55.332Z,34.81
2022-11-13T23:13:59.751Z,34.84
2022-11-13T23:16:04.152Z,35.26
2022-11-13T23:18:11.806Z,34.82
2022-11-13T23:20:16.195Z,34.84
2022-11-13T23:22:20.569Z,35.03
2022-11-13T23:24:24.944Z,34.91
2022-11-13T23:26:29.447Z,34.91
2022-11-13T23:28:34.218Z,34.9
2022-11-13T23:30:38.603Z,34.92
2022-11-13T23:32:42.994Z,34.92
2022-11-13T23:35:02.761Z,35.1
2022-11-13T23:37:07.148Z,34.88
2022-11-13T23:39:11.521Z,34.98
2022-11-13T23:41:15.905Z,34.81
2022-11-13T23:43:20.255Z,34.82
2022-11-13T23:45:24.712Z,34.79
2022-11-13T23:47:29.070Z,35.01
2022-11-13T23:49:33.455Z,34.94
2022-11-13T23:51:37.834Z,34.82
2022-11-13T23:53:42.217Z,34.84
2022-11-13T23:55:46.613Z,35.02
2022-11-13T23:57:50.980Z,34.94
2022-11-13T23:59:55.331Z,34.88
